Time;durP1;ratioP1;P1;durP2;ratioP2;P2;SDS_P1;SDS_P2;PMS_P1;PMS_P2;Temp;Humidity;BMP_temperature;BMP_pressure;BME280_temperature;BME280_humidity;BME280_pressure;Samples;Min_cycle;Max_cycle;Signal;HPM_P1;HPM_P2
2022/09/11 00:00:32;;;;;;;55.67;26.42;;;13.20;99.90;;;;;;5044512;28;20361;-68
2022/09/11 00:02:57;;;;;;;59.88;26.85;;;13.10;99.90;;;;;;5056842;28;20028;-68
2022/09/11 00:05:24;;;;;;;62.70;28.23;;;13.20;99.90;;;;;;5056872;28;20094;-68
2022/09/11 00:07:50;;;;;;;62.78;28.42;;;13.20;99.90;;;;;;5045091;28;20118;-68
2022/09/11 00:10:16;;;;;;;67.97;30.42;;;13.20;99.90;;;;;;5057340;28;20070;-69
2022/09/11 00:12:43;;;;;;;74.35;30.17;;;13.10;99.90;;;;;;5036123;28;20124;-68
2022/09/11 00:15:09;;;;;;;75.25;30.70;;;13.20;99.90;;;;;;5058547;28;20045;-67
2022/09/11 00:17:35;;;;;;;70.32;29.05;;;13.20;99.90;;;;;;5054999;28;20060;-67
2022/09/11 00:20:01;;;;;;;69.63;29.30;;;13.40;99.90;;;;;;5056199;28;20068;-67
2022/09/11 00:22:26;;;;;;;59.75;27.55;;;13.40;99.90;;;;;;5060961;28;20043;-67
2022/09/11 00:24:53;;;;;;;62.97;29.00;;;13.40;99.90;;;;;;5053973;28;20040;-68
2022/09/11 00:27:19;;;;;;;57.42;26.67;;;13.40;99.90;;;;;;5055196;28;20037;-68
2022/09/11 00:29:45;;;;;;;72.32;30.63;;;13.30;99.90;;;;;;5055913;28;20118;-68
2022/09/11 00:32:11;;;;;;;70.20;29.23;;;13.30;99.90;;;;;;5056276;28;20046;-68
2022/09/11 00:34:38;;;;;;;67.70;29.85;;;13.30;99.90;;;;;;5058501;28;20040;-68
2022/09/11 00:37:04;;;;;;;85.78;28.55;;;13.30;99.90;;;;;;5053905;28;20498;-68
2022/09/11 00:39:29;;;;;;;383.45;27.92;;;13.40;99.90;;;;;;5052755;28;20048;-67
2022/09/11 00:41:55;;;;;;;140.90;25.38;;;13.30;99.90;;;;;;5051286;28;20779;-67
2022/09/11 00:44:24;;;;;;;51.38;20.67;;;13.20;99.90;;;;;;5052917;28;20124;-67
2022/09/11 00:46:55;;;;;;;46.38;21.63;;;13.20;99.90;;;;;;5052419;28;20036;-67
2022/09/11 00:49:45;;;;;;;293.02;25.13;;;13.20;99.90;;;;;;5055865;28;20075;-67
2022/09/11 00:52:16;;;;;;;303.85;30.10;;;13.20;99.90;;;;;;5050353;28;20037;-67
2022/09/11 00:55:06;;;;;;;444.48;34.72;;;13.00;99.90;;;;;;5046655;28;20069;-67
2022/09/11 00:57:38;;;;;;;534.03;35.33;;;13.10;99.90;;;;;;5047359;28;20082;-67
2022/09/11 01:00:05;;;;;;;250.30;29.45;;;13.00;99.90;;;;;;5054304;28;20399;-67
2022/09/11 01:02:34;;;;;;;531.33;37.33;;;12.90;99.90;;;;;;5051601;28;20518;-67
2022/09/11 01:05:00;;;;;;;403.83;30.58;;;13.00;99.90;;;;;;5054006;28;20063;-67
2022/09/11 01:07:27;;;;;;;411.10;27.55;;;13.10;99.90;;;;;;5054793;28;20110;-67
2022/09/11 01:09:53;;;;;;;379.25;25.95;;;13.00;99.90;;;;;;5056958;28;20044;-67
2022/09/11 01:12:35;;;;;;;217.52;25.77;;;12.90;99.90;;;;;;5056094;28;20053;-67
2022/09/11 01:15:06;;;;;;;153.40;25.42;;;13.00;99.90;;;;;;5073798;28;20056;-67
2022/09/11 01:17:47;;;;;;;298.17;28.33;;;12.90;99.90;;;;;;5045550;28;20040;-67
2022/09/11 01:20:42;;;;;;;484.50;30.50;;;12.90;99.90;;;;;;5049179;28;20498;-67
2022/09/11 01:23:36;;;;;;;388.52;26.52;;;12.90;99.90;;;;;;5057389;28;20070;-67
2022/09/11 01:26:31;;;;;;;226.80;28.73;;;12.80;99.90;;;;;;5053122;28;20033;-68
2022/09/11 01:29:22;;;;;;;87.20;25.95;;;12.80;99.90;;;;;;5064890;28;20096;-67
2022/09/11 01:32:13;;;;;;;106.43;28.27;;;13.00;99.90;;;;;;5046868;28;20099;-67
2022/09/11 01:34:51;;;;;;;148.70;28.00;;;12.80;99.90;;;;;;5053106;28;20044;-68
2022/09/11 01:37:26;;;;;;;130.18;28.05;;;13.00;99.90;;;;;;5054892;28;20033;-68
2022/09/11 01:40:00;;;;;;;125.60;29.83;;;12.90;99.90;;;;;;5058261;28;20072;-68
2022/09/11 01:42:30;;;;;;;64.50;23.55;;;13.10;99.90;;;;;;5055001;28;20037;-67
2022/09/11 01:44:56;;;;;;;144.50;30.88;;;13.10;99.90;;;;;;5057935;28;20102;-69
2022/09/11 01:47:22;;;;;;;88.47;29.08;;;13.00;99.90;;;;;;5045588;28;20163;-68
2022/09/11 01:49:57;;;;;;;55.40;25.33;;;13.00;99.90;;;;;;5069753;28;20052;-68
2022/09/11 01:52:28;;;;;;;56.85;20.38;;;12.90;99.90;;;;;;5072441;28;20036;-68
2022/09/11 01:54:58;;;;;;;238.38;18.40;;;13.00;99.90;;;;;;5066202;28;20037;-68
2022/09/11 01:57:41;;;;;;;435.42;20.38;;;12.80;99.90;;;;;;5060090;28;20056;-68
2022/09/11 02:00:10;;;;;;;174.75;17.02;;;12.50;99.90;;;;;;5068242;28;20040;-68
2022/09/11 02:02:39;;;;;;;21.58;10.93;;;12.30;99.90;;;;;;5052395;28;20049;-68
2022/09/11 02:05:14;;;;;;;21.23;11.35;;;12.00;99.90;;;;;;5066450;28;20037;-68
2022/09/11 02:08:06;;;;;;;22.10;11.43;;;12.10;99.90;;;;;;5042195;28;20410;-68
2022/09/11 02:10:39;;;;;;;31.75;9.63;;;12.00;99.90;;;;;;5056428;28;20033;-68
2022/09/11 02:13:33;;;;;;;257.95;16.25;;;11.90;99.90;;;;;;5061895;28;20036;-69
2022/09/11 02:16:15;;;;;;;336.92;22.65;;;11.80;99.90;;;;;;5076635;28;20040;-69
2022/09/11 02:19:03;;;;;;;34.20;12.40;;;11.80;99.90;;;;;;5058299;28;20052;-68
2022/09/11 02:21:29;;;;;;;34.97;11.77;;;11.80;99.90;;;;;;5054372;28;20037;-68
2022/09/11 02:23:56;;;;;;;34.38;11.70;;;11.80;99.90;;;;;;5055241;28;20052;-68
2022/09/11 02:26:27;;;;;;;23.17;11.07;;;11.90;99.90;;;;;;5061199;28;20090;-68
2022/09/11 02:28:54;;;;;;;19.35;10.95;;;11.90;99.90;;;;;;5058042;28;20407;-69
2022/09/11 02:31:20;;;;;;;16.17;8.95;;;11.80;99.90;;;;;;5057404;28;20048;-68
2022/09/11 02:33:47;;;;;;;19.17;10.23;;;11.90;99.90;;;;;;5076040;28;20066;-69
2022/09/11 02:36:31;;;;;;;53.75;12.98;;;11.80;99.90;;;;;;5061558;28;20051;-69
2022/09/11 02:39:22;;;;;;;137.40;15.38;;;11.80;99.90;;;;;;5057876;28;20044;-70
2022/09/11 02:42:00;;;;;;;220.88;18.33;;;11.70;99.90;;;;;;5057941;28;20219;-69
2022/09/11 02:44:56;;;;;;;261.80;18.02;;;11.70;99.90;;;;;;5043834;28;20055;-69
2022/09/11 02:47:40;;;;;;;101.20;13.52;;;11.60;99.90;;;;;;5079629;28;20041;-69
2022/09/11 02:50:42;;;;;;;96.70;13.15;;;11.60;99.90;;;;;;5071719;28;20037;-70
2022/09/11 02:53:34;;;;;;;152.57;14.45;;;11.60;99.90;;;;;;5069886;28;20123;-70
2022/09/11 02:56:06;;;;;;;26.02;11.68;;;11.60;99.90;;;;;;5054334;28;20036;-70
2022/09/11 02:58:32;;;;;;;49.75;13.48;;;11.50;99.90;;;;;;5058592;28;21523;-69
2022/09/11 03:00:59;;;;;;;125.30;15.57;;;11.50;99.90;;;;;;5055424;28;20043;-69
2022/09/11 03:03:25;;;;;;;23.90;12.52;;;11.60;99.90;;;;;;5063834;28;20041;-69
2022/09/11 03:05:51;;;;;;;34.03;11.68;;;11.60;99.90;;;;;;5062192;28;20051;-69
2022/09/11 03:08:17;;;;;;;45.20;12.68;;;11.50;99.90;;;;;;5057243;28;20030;-69
2022/09/11 03:10:48;;;;;;;38.83;12.85;;;11.40;99.90;;;;;;5051686;28;20080;-69
2022/09/11 03:13:14;;;;;;;146.25;13.60;;;11.40;99.90;;;;;;5050300;28;20036;-70
2022/09/11 03:15:42;;;;;;;65.07;11.95;;;11.30;99.90;;;;;;5047145;28;20037;-69
2022/09/11 03:18:09;;;;;;;44.15;11.93;;;11.30;99.90;;;;;;5057161;28;20498;-69
2022/09/11 03:20:35;;;;;;;92.72;12.60;;;11.40;99.90;;;;;;5058357;28;20037;-69
2022/09/11 03:23:00;;;;;;;263.45;18.65;;;11.40;99.90;;;;;;5053053;28;20037;-70
2022/09/11 03:25:27;;;;;;;246.85;18.65;;;11.30;99.90;;;;;;5051465;28;20545;-69
2022/09/11 03:27:53;;;;;;;188.60;17.23;;;11.30;99.90;;;;;;5053459;28;20033;-69
2022/09/11 03:30:20;;;;;;;90.80;16.38;;;11.20;99.90;;;;;;5058015;28;20045;-69
2022/09/11 03:32:45;;;;;;;46.92;16.23;;;11.20;99.90;;;;;;5057695;28;20041;-69
2022/09/11 03:35:11;;;;;;;45.25;14.68;;;11.30;99.90;;;;;;5060356;28;20051;-69
2022/09/11 03:37:36;;;;;;;48.40;12.15;;;11.30;99.90;;;;;;5053158;28;20072;-69
2022/09/11 03:40:03;;;;;;;147.25;14.52;;;11.20;99.90;;;;;;5061857;28;20037;-69
2022/09/11 03:42:29;;;;;;;130.40;14.70;;;11.30;99.90;;;;;;5057978;28;20052;-69
2022/09/11 03:44:54;;;;;;;160.00;15.52;;;11.20;99.90;;;;;;5033564;28;20395;-69
2022/09/11 03:47:21;;;;;;;60.17;13.30;;;11.10;99.90;;;;;;5051803;28;20102;-69
2022/09/11 03:49:47;;;;;;;42.08;12.48;;;11.10;99.90;;;;;;5060505;28;20041;-69
2022/09/11 03:52:13;;;;;;;31.52;11.52;;;11.20;99.90;;;;;;5042861;28;20182;-69
2022/09/11 03:54:38;;;;;;;61.35;13.77;;;11.30;99.90;;;;;;5040250;28;20084;-69
2022/09/11 03:57:09;;;;;;;91.80;13.73;;;11.20;99.90;;;;;;5033072;28;20532;-69
2022/09/11 03:59:34;;;;;;;120.70;14.43;;;11.20;99.90;;;;;;5049339;28;20049;-68
2022/09/11 04:02:00;;;;;;;118.32;15.70;;;11.00;99.90;;;;;;5042497;28;20033;-69
2022/09/11 04:04:26;;;;;;;150.98;17.08;;;11.10;99.90;;;;;;5032740;28;20037;-69
2022/09/11 04:06:51;;;;;;;173.15;18.23;;;11.00;99.90;;;;;;5033254;28;20052;-69
2022/09/11 04:09:17;;;;;;;128.85;17.77;;;11.10;99.90;;;;;;5047429;28;20033;-69
2022/09/11 04:11:43;;;;;;;32.10;13.80;;;11.10;99.90;;;;;;5049567;28;20037;-69
2022/09/11 04:14:08;;;;;;;14.57;9.82;;;11.00;99.90;;;;;;5049029;28;20380;-70
2022/09/11 04:16:34;;;;;;;14.57;10.23;;;11.20;99.90;;;;;;5052139;28;20044;-68
2022/09/11 04:19:00;;;;;;;16.45;9.90;;;11.20;99.90;;;;;;5045431;28;20442;-69
2022/09/11 04:21:27;;;;;;;13.52;9.60;;;11.10;99.90;;;;;;5052252;28;20176;-69
2022/09/11 04:23:54;;;;;;;15.60;10.38;;;11.20;99.90;;;;;;5055053;28;20136;-68
2022/09/11 04:26:23;;;;;;;14.85;9.52;;;11.00;99.90;;;;;;5059680;28;20048;-68
2022/09/11 04:28:49;;;;;;;16.52;11.00;;;11.00;99.90;;;;;;5048633;28;20037;-68
2022/09/11 04:31:16;;;;;;;22.85;11.55;;;11.10;99.90;;;;;;5054512;28;20441;-68
2022/09/11 04:33:43;;;;;;;17.08;12.15;;;11.10;99.90;;;;;;5045668;28;20041;-68
2022/09/11 04:36:11;;;;;;;15.73;11.50;;;11.10;99.90;;;;;;5040250;28;20037;-68
2022/09/11 04:38:40;;;;;;;16.33;10.73;;;11.00;99.90;;;;;;5045741;28;20106;-68
2022/09/11 04:41:06;;;;;;;22.42;10.70;;;11.10;99.90;;;;;;5035019;28;20480;-68
2022/09/11 04:43:33;;;;;;;23.83;11.13;;;11.00;99.90;;;;;;5052774;28;20033;-68
2022/09/11 04:46:07;;;;;;;18.45;11.07;;;11.00;99.90;;;;;;5043184;28;20052;-68
2022/09/11 04:48:32;;;;;;;17.13;11.40;;;10.90;99.90;;;;;;5060606;28;20420;-68
2022/09/11 04:51:06;;;;;;;61.92;10.40;;;10.90;99.90;;;;;;5057741;28;20134;-68
2022/09/11 04:53:33;;;;;;;132.68;11.20;;;11.00;99.90;;;;;;5052882;28;20546;-68
2022/09/11 04:56:07;;;;;;;78.50;10.77;;;10.80;99.90;;;;;;5045074;28;20120;-67
2022/09/11 04:58:33;;;;;;;42.92;9.38;;;10.80;99.90;;;;;;5048141;28;20109;-68
2022/09/11 05:01:00;;;;;;;14.48;8.68;;;10.70;99.90;;;;;;5049736;28;20044;-67
2022/09/11 05:03:26;;;;;;;15.23;10.23;;;10.70;99.90;;;;;;5056784;28;20048;-67
2022/09/11 05:05:51;;;;;;;15.82;10.25;;;10.70;99.90;;;;;;5061377;28;20047;-67
2022/09/11 05:08:17;;;;;;;32.17;12.32;;;10.70;99.90;;;;;;5059000;28;20058;-68
2022/09/11 05:10:45;;;;;;;62.90;12.48;;;10.70;99.90;;;;;;5052964;28;21242;-67
2022/09/11 05:13:10;;;;;;;70.85;12.90;;;10.70;99.90;;;;;;5028829;28;20035;-67
2022/09/11 05:15:36;;;;;;;49.03;11.55;;;10.60;99.90;;;;;;5057368;28;20491;-67
2022/09/11 05:18:02;;;;;;;30.35;9.98;;;10.70;99.90;;;;;;5052630;28;20037;-67
2022/09/11 05:20:29;;;;;;;86.90;11.27;;;10.60;99.90;;;;;;5051892;28;20071;-67
2022/09/11 05:22:55;;;;;;;26.05;10.38;;;10.70;99.90;;;;;;5053198;28;20033;-67
2022/09/11 05:25:21;;;;;;;16.90;10.35;;;10.70;99.90;;;;;;5055589;28;20404;-67
2022/09/11 05:27:47;;;;;;;16.10;10.75;;;10.70;99.90;;;;;;5053970;28;20043;-67
2022/09/11 05:30:13;;;;;;;17.85;11.10;;;10.80;99.90;;;;;;5056122;28;20033;-67
2022/09/11 05:32:38;;;;;;;20.00;11.32;;;10.70;99.90;;;;;;5063454;28;20053;-67
2022/09/11 05:35:06;;;;;;;101.97;12.32;;;10.70;99.90;;;;;;5052984;28;20028;-67
2022/09/11 05:37:31;;;;;;;156.90;15.30;;;10.70;99.90;;;;;;5060406;28;20048;-67
2022/09/11 05:39:58;;;;;;;83.53;14.13;;;10.70;99.90;;;;;;5054902;28;20175;-67
2022/09/11 05:42:23;;;;;;;80.18;15.13;;;10.70;99.90;;;;;;5059997;28;20122;-67
2022/09/11 05:44:49;;;;;;;112.28;15.02;;;10.70;99.90;;;;;;5069005;28;20099;-67
2022/09/11 05:47:14;;;;;;;34.03;13.63;;;10.80;99.90;;;;;;5059814;28;20032;-67
2022/09/11 05:49:40;;;;;;;35.60;13.32;;;10.70;99.90;;;;;;5058361;28;20295;-67
2022/09/11 05:52:05;;;;;;;44.65;14.13;;;10.80;99.90;;;;;;5054955;28;20047;-67
2022/09/11 05:54:31;;;;;;;34.72;11.77;;;10.80;99.90;;;;;;5052106;28;20507;-67
2022/09/11 05:56:56;;;;;;;68.85;15.20;;;10.80;99.90;;;;;;5049893;28;20045;-67
2022/09/11 05:59:22;;;;;;;88.97;16.58;;;11.00;99.90;;;;;;5048525;28;20541;-68
2022/09/11 06:01:49;;;;;;;115.63;17.67;;;10.90;99.90;;;;;;5061489;28;20044;-68
2022/09/11 06:04:17;;;;;;;101.90;15.95;;;11.10;99.90;;;;;;5063633;28;20508;-68
2022/09/11 06:06:42;;;;;;;77.93;15.93;;;11.00;99.90;;;;;;5057763;28;20354;-68
2022/09/11 06:09:08;;;;;;;105.22;16.83;;;11.10;99.90;;;;;;5056290;28;20109;-68
2022/09/11 06:11:34;;;;;;;106.85;16.55;;;10.90;99.90;;;;;;5051075;28;20073;-67
2022/09/11 06:14:00;;;;;;;120.75;17.60;;;11.10;99.90;;;;;;5058813;28;20037;-68
2022/09/11 06:16:25;;;;;;;65.45;17.13;;;11.10;99.90;;;;;;5057415;28;20066;-68
2022/09/11 06:18:52;;;;;;;92.25;17.65;;;11.10;99.90;;;;;;5055309;28;20123;-68
2022/09/11 06:21:20;;;;;;;95.68;17.50;;;11.30;99.90;;;;;;5053440;28;20051;-68
2022/09/11 06:23:47;;;;;;;96.93;17.77;;;11.40;99.90;;;;;;5042590;28;20059;-68
2022/09/11 06:26:14;;;;;;;75.55;17.35;;;11.30;99.90;;;;;;5049628;28;20034;-69
2022/09/11 06:28:40;;;;;;;84.57;17.02;;;11.50;99.90;;;;;;5056659;28;20033;-69
2022/09/11 06:31:10;;;;;;;46.33;17.23;;;11.40;99.90;;;;;;5071236;28;20040;-69
2022/09/11 06:33:39;;;;;;;36.40;16.00;;;11.70;99.90;;;;;;5052676;28;20047;-69
2022/09/11 06:36:34;;;;;;;26.67;15.35;;;11.80;99.90;;;;;;5057230;28;20704;-69
2022/09/11 06:39:01;;;;;;;46.38;18.67;;;11.90;99.90;;;;;;5050249;28;20071;-68
2022/09/11 06:41:33;;;;;;;23.50;14.98;;;12.00;99.90;;;;;;5053851;28;20099;-68
2022/09/11 06:43:59;;;;;;;36.28;19.05;;;12.20;99.90;;;;;;5055522;28;20479;-68
2022/09/11 06:46:25;;;;;;;40.38;20.08;;;12.20;99.90;;;;;;5054135;28;20040;-68
2022/09/11 06:48:52;;;;;;;37.60;20.75;;;12.20;99.90;;;;;;5053642;28;20037;-68
2022/09/11 06:51:20;;;;;;;43.50;21.63;;;12.50;99.90;;;;;;5056464;28;20090;-69
2022/09/11 06:53:46;;;;;;;39.67;20.52;;;12.60;99.90;;;;;;5053671;28;20491;-69
2022/09/11 06:56:15;;;;;;;41.80;22.13;;;12.70;99.90;;;;;;5058332;28;20113;-68
2022/09/11 06:58:40;;;;;;;38.13;22.20;;;12.80;99.90;;;;;;5055430;28;20047;-68
2022/09/11 07:01:11;;;;;;;42.60;23.75;;;13.00;99.90;;;;;;5054358;28;20037;-68
2022/09/11 07:03:37;;;;;;;42.72;24.00;;;13.10;99.90;;;;;;5057900;28;20087;-68
2022/09/11 07:06:04;;;;;;;40.33;22.30;;;13.30;99.90;;;;;;5052728;28;20496;-68
2022/09/11 07:08:30;;;;;;;40.28;22.83;;;13.50;99.90;;;;;;5058663;28;20118;-69
2022/09/11 07:11:02;;;;;;;33.00;20.92;;;13.70;99.90;;;;;;5050552;28;20044;-69
2022/09/11 07:13:28;;;;;;;38.25;22.42;;;13.80;99.90;;;;;;5051597;28;20044;-69
2022/09/11 07:16:01;;;;;;;34.65;21.67;;;13.90;99.90;;;;;;5052799;28;20094;-70
2022/09/11 07:18:32;;;;;;;36.53;21.48;;;14.00;99.90;;;;;;5048674;28;20044;-69
2022/09/11 07:20:59;;;;;;;33.17;20.90;;;14.30;99.90;;;;;;5048388;28;20049;-70
2022/09/11 07:23:24;;;;;;;35.42;21.92;;;14.30;99.90;;;;;;5044740;28;20337;-69
2022/09/11 07:25:50;;;;;;;34.60;21.52;;;14.40;99.90;;;;;;5040206;28;20079;-68
2022/09/11 07:28:15;;;;;;;40.38;22.55;;;14.50;99.90;;;;;;5044222;28;20036;-68
2022/09/11 07:30:41;;;;;;;35.78;22.58;;;14.70;99.90;;;;;;5051517;28;20049;-69
2022/09/11 07:33:06;;;;;;;39.15;22.85;;;14.70;99.90;;;;;;5059514;28;20067;-68
2022/09/11 07:35:36;;;;;;;38.78;23.00;;;14.90;99.90;;;;;;5047501;28;20340;-68
2022/09/11 07:38:01;;;;;;;36.60;22.05;;;15.10;99.90;;;;;;5054857;28;20045;-68
2022/09/11 07:40:27;;;;;;;35.50;23.30;;;15.30;99.90;;;;;;5052447;28;20040;-69
2022/09/11 07:42:52;;;;;;;33.10;21.90;;;15.60;99.90;;;;;;5048441;28;20071;-68
2022/09/11 07:45:18;;;;;;;30.02;20.63;;;15.70;99.90;;;;;;5048919;28;20037;-68
2022/09/11 07:47:43;;;;;;;30.02;19.70;;;15.80;99.90;;;;;;5046373;28;20147;-69
2022/09/11 07:50:10;;;;;;;30.90;20.83;;;16.10;99.90;;;;;;5049914;28;20494;-68
2022/09/11 07:52:35;;;;;;;32.50;20.48;;;16.20;99.90;;;;;;5055956;28;20055;-67
2022/09/11 07:55:02;;;;;;;29.15;19.35;;;16.40;99.90;;;;;;5054082;28;20041;-68
2022/09/11 07:57:29;;;;;;;30.10;19.60;;;16.30;99.90;;;;;;5031106;28;20041;-68
2022/09/11 07:59:55;;;;;;;28.63;18.95;;;16.60;99.90;;;;;;5052908;28;20496;-68
2022/09/11 08:02:21;;;;;;;26.23;19.38;;;16.70;99.90;;;;;;5051978;28;20113;-69
2022/09/11 08:04:47;;;;;;;27.20;18.65;;;16.70;99.90;;;;;;5050486;28;20082;-69
2022/09/11 08:07:12;;;;;;;22.25;14.75;;;17.00;99.90;;;;;;5054063;28;20036;-70
2022/09/11 08:09:38;;;;;;;23.35;13.90;;;17.00;99.90;;;;;;5053341;28;20426;-70
2022/09/11 08:12:04;;;;;;;19.08;13.25;;;17.10;99.90;;;;;;5053946;28;20174;-70
2022/09/11 08:14:30;;;;;;;18.30;12.77;;;17.10;99.90;;;;;;5051611;28;20052;-70
2022/09/11 08:16:55;;;;;;;22.00;13.82;;;17.30;99.90;;;;;;5049414;28;20055;-70
2022/09/11 08:19:22;;;;;;;19.95;13.38;;;17.40;99.90;;;;;;5050397;28;20033;-68
2022/09/11 08:21:49;;;;;;;17.98;12.27;;;17.40;99.90;;;;;;5057710;28;20048;-70
2022/09/11 08:24:16;;;;;;;16.23;12.40;;;17.60;99.90;;;;;;5059485;28;20041;-70
2022/09/11 08:26:42;;;;;;;15.82;10.43;;;17.60;99.90;;;;;;5050269;28;20146;-69
2022/09/11 08:29:08;;;;;;;15.57;10.55;;;17.80;99.90;;;;;;5073802;28;20036;-70
2022/09/11 08:31:34;;;;;;;14.30;9.52;;;17.80;99.90;;;;;;5039775;28;20044;-69
2022/09/11 08:34:00;;;;;;;13.85;9.60;;;17.70;99.90;;;;;;5067761;28;20387;-70
2022/09/11 08:36:27;;;;;;;17.13;9.23;;;17.70;99.90;;;;;;5047365;28;20266;-70
2022/09/11 08:38:53;;;;;;;11.68;8.05;;;17.70;99.90;;;;;;5044586;28;20611;-70
2022/09/11 08:41:28;;;;;;;9.07;5.78;;;17.90;99.90;;;;;;5054192;28;20040;-68
2022/09/11 08:44:00;;;;;;;8.93;6.38;;;18.00;99.90;;;;;;5047741;28;20471;-69
2022/09/11 08:46:32;;;;;;;9.35;6.97;;;18.00;99.90;;;;;;5051119;28;20043;-69
2022/09/11 08:49:28;;;;;;;;;;;17.90;99.90;;;;;;5053373;28;20627;-70
2022/09/11 08:51:58;;;;;;;10.82;7.43;;;17.90;99.90;;;;;;5066967;28;19923;-69
2022/09/11 08:54:31;;;;;;;10.15;6.53;;;17.90;99.90;;;;;;5045553;28;20380;-69
2022/09/11 08:57:04;;;;;;;;;;;18.00;99.90;;;;;;5048595;28;20566;-70
2022/09/11 08:59:49;;;;;;;9.55;5.97;;;18.20;99.90;;;;;;5032062;28;20391;-69
2022/09/11 09:02:30;;;;;;;7.78;5.57;;;18.30;99.90;;;;;;5049564;28;20101;-70
2022/09/11 09:05:37;;;;;;;7.45;4.72;;;18.30;99.90;;;;;;5035880;28;20497;-68
2022/09/11 09:08:36;;;;;;;6.68;5.30;;;18.30;99.90;;;;;;5039732;28;20080;-68
2022/09/11 09:11:07;;;;;;;10.25;6.30;;;18.20;99.90;;;;;;5058809;28;20044;-68
2022/09/11 09:14:04;;;;;;;7.83;6.30;;;18.20;99.90;;;;;;5046833;28;20045;-67
2022/09/11 09:16:52;;;;;;;11.57;6.47;;;18.20;99.90;;;;;;5044320;28;20780;-67
2022/09/11 09:19:45;;;;;;;9.90;6.45;;;18.30;99.90;;;;;;5054462;28;20396;-67
2022/09/11 09:22:11;;;;;;;9.13;6.85;;;18.30;99.90;;;;;;5062309;28;20044;-65
2022/09/11 09:24:47;;;;;;;10.32;7.18;;;18.40;99.90;;;;;;5052197;28;20049;-65
2022/09/11 09:27:32;;;;;;;10.30;6.15;;;18.70;99.90;;;;;;5047817;28;20075;-66
2022/09/11 09:30:04;;;;;;;7.10;4.75;;;18.90;99.90;;;;;;5042654;28;20049;-66
2022/09/11 09:32:40;;;;;;;6.03;3.92;;;19.10;99.90;;;;;;5052451;28;20135;-69
2022/09/11 09:35:15;;;;;;;5.70;4.50;;;19.40;99.90;;;;;;5042291;28;20052;-66
2022/09/11 09:37:41;;;;;;;7.65;4.80;;;19.50;99.90;;;;;;5054579;28;20032;-66
2022/09/11 09:40:09;;;;;;;6.32;4.30;;;19.60;99.90;;;;;;5053227;28;20033;-70
2022/09/11 09:43:12;;;;;;;7.63;4.13;;;19.80;99.90;;;;;;5045436;28;20044;-66
2022/09/11 09:45:41;;;;;;;6.35;4.57;;;19.90;99.90;;;;;;5047523;28;20054;-69
2022/09/11 09:48:10;;;;;;;6.90;5.03;;;20.00;99.90;;;;;;5063240;28;20044;-67
2022/09/11 09:50:38;;;;;;;6.88;5.13;;;19.90;99.90;;;;;;5054604;28;20080;-68
2022/09/11 09:53:10;;;;;;;6.35;5.03;;;19.80;99.90;;;;;;5043047;28;20051;-67
2022/09/11 09:55:39;;;;;;;7.32;5.60;;;19.70;99.90;;;;;;5041445;28;20040;-67
2022/09/11 09:58:06;;;;;;;8.60;5.28;;;19.70;99.90;;;;;;5043597;28;20383;-67
2022/09/11 10:00:34;;;;;;;9.00;5.35;;;19.60;99.90;;;;;;5044321;28;20037;-66
2022/09/11 10:03:23;;;;;;;6.80;5.38;;;19.40;99.90;;;;;;5040363;28;20037;-66
2022/09/11 10:05:54;;;;;;;7.47;5.28;;;19.30;99.90;;;;;;5052823;28;20025;-65
2022/09/11 10:08:36;;;;;;;6.53;5.22;;;19.20;99.90;;;;;;5049600;28;20040;-66
2022/09/11 10:11:07;;;;;;;7.47;5.07;;;19.10;99.90;;;;;;5053397;28;20042;-66
2022/09/11 10:13:38;;;;;;;7.95;5.78;;;19.00;99.90;;;;;;5041887;28;20055;-66
2022/09/11 10:16:18;;;;;;;11.70;5.85;;;18.90;99.90;;;;;;5051794;28;20076;-65
2022/09/11 10:18:45;;;;;;;7.03;5.53;;;18.80;99.90;;;;;;5059951;28;20544;-65
2022/09/11 10:21:11;;;;;;;7.00;5.07;;;18.80;99.90;;;;;;5057539;28;20085;-65
2022/09/11 10:23:58;;;;;;;12.23;5.97;;;18.90;99.90;;;;;;5053920;28;20427;-65
2022/09/11 10:26:48;;;;;;;8.48;5.60;;;19.10;99.90;;;;;;5059028;28;20487;-66
2022/09/11 10:29:28;;;;;;;6.82;5.20;;;19.30;99.90;;;;;;5053567;28;20037;-66
2022/09/11 10:31:56;;;;;;;9.75;6.20;;;19.50;99.90;;;;;;5044801;28;20121;-67
2022/09/11 10:34:26;;;;;;;8.23;5.63;;;19.70;99.90;;;;;;5051946;28;20050;-67
2022/09/11 10:36:55;;;;;;;6.63;5.15;;;19.90;99.90;;;;;;5053118;28;20080;-67
2022/09/11 10:39:23;;;;;;;9.02;4.70;;;20.10;99.90;;;;;;5040440;28;20040;-65
2022/09/11 10:41:52;;;;;;;8.25;5.03;;;20.20;99.90;;;;;;5058880;28;20550;-66
2022/09/11 10:44:20;;;;;;;6.45;4.43;;;20.30;99.90;;;;;;5062429;28;20218;-67
2022/09/11 10:47:12;;;;;;;6.43;3.90;;;20.40;99.90;;;;;;5051006;28;20060;-66
2022/09/11 10:49:38;;;;;;;6.88;4.55;;;20.50;99.90;;;;;;5054875;28;20090;-68
2022/09/11 10:52:06;;;;;;;6.07;4.90;;;20.40;99.90;;;;;;5054909;28;20652;-68
2022/09/11 10:54:44;;;;;;;5.75;4.28;;;20.20;99.90;;;;;;5056708;28;20062;-67
2022/09/11 10:57:32;;;;;;;5.57;4.30;;;20.10;99.90;;;;;;5050921;28;20044;-67
2022/09/11 11:00:04;;;;;;;9.27;4.70;;;20.00;99.90;;;;;;5055195;28;20044;-66
2022/09/11 11:02:31;;;;;;;8.65;4.68;;;19.90;99.90;;;;;;5057335;28;20049;-68
2022/09/11 11:05:02;;;;;;;6.53;4.22;;;19.90;99.90;;;;;;5050934;28;20510;-72
2022/09/11 11:07:44;;;;;;;4.82;3.90;;;19.90;99.90;;;;;;5057863;28;20079;-67
2022/09/11 11:10:31;;;;;;;6.95;4.20;;;19.80;99.90;;;;;;5055961;28;20033;-70
2022/09/11 11:13:13;;;;;;;6.20;3.80;;;19.80;99.90;;;;;;5039665;28;20698;-67
2022/09/11 11:15:56;;;;;;;16.80;6.70;;;19.70;99.90;;;;;;5078772;28;20090;-67
2022/09/11 11:18:35;;;;;;;16.35;6.32;;;19.70;99.90;;;;;;5048850;28;20048;-67
2022/09/11 11:21:36;;;;;;;6.35;3.90;;;19.80;99.90;;;;;;5051287;28;20127;-69
2022/09/11 11:24:21;;;;;;;6.70;3.67;;;19.90;99.90;;;;;;5058270;28;20043;-71
2022/09/11 11:26:58;;;;;;;4.07;3.25;;;20.10;99.90;;;;;;5035314;28;20611;-71
2022/09/11 11:29:52;;;;;;;7.38;4.00;;;20.40;99.90;;;;;;5069019;28;20492;-73
2022/09/11 11:32:50;;;;;;;5.43;3.42;;;20.60;99.90;;;;;;5060724;28;20468;-70
2022/09/11 11:35:34;;;;;;;4.60;3.15;;;20.80;99.90;;;;;;5062931;28;20505;-69
2022/09/11 11:38:09;;;;;;;7.53;3.75;;;21.00;99.90;;;;;;5061565;28;20478;-69
2022/09/11 11:40:41;;;;;;;6.85;4.30;;;21.10;99.90;;;;;;5051655;28;20566;-71
2022/09/11 11:43:12;;;;;;;6.78;3.67;;;21.20;99.90;;;;;;5046904;28;20046;-69
2022/09/11 11:45:48;;;;;;;9.13;3.17;;;21.20;99.90;;;;;;5046332;28;20543;-68
2022/09/11 11:48:35;;;;;;;9.60;3.97;;;21.20;99.90;;;;;;5054548;28;20361;-70
2022/09/11 11:51:06;;;;;;;3.95;3.10;;;21.30;99.90;;;;;;5052775;28;20056;-72
2022/09/11 11:53:37;;;;;;;4.60;3.70;;;21.30;99.90;;;;;;5071097;28;20048;-71
2022/09/11 11:56:27;;;;;;;5.97;3.27;;;21.30;99.90;;;;;;5065483;28;20664;-68
2022/09/11 11:59:02;;;;;;;3.65;2.88;;;21.20;99.90;;;;;;5049309;28;20037;-68
2022/09/11 12:01:43;;;;;;;7.47;3.30;;;21.30;99.90;;;;;;5053341;28;20041;-70
2022/09/11 12:04:33;;;;;;;5.15;3.42;;;21.20;99.90;;;;;;5056765;28;20047;-70
2022/09/11 12:07:12;;;;;;;5.38;3.08;;;21.30;99.90;;;;;;5042572;28;20049;-69
2022/09/11 12:09:38;;;;;;;8.48;3.08;;;21.20;99.90;;;;;;5048739;28;20128;-69
2022/09/11 12:12:06;;;;;;;7.28;2.95;;;21.30;99.90;;;;;;5043088;28;20207;-69
2022/09/11 12:14:35;;;;;;;4.03;2.75;;;21.40;99.90;;;;;;5040154;28;20076;-69
2022/09/11 12:17:27;;;;;;;3.63;2.60;;;21.40;99.90;;;;;;5059866;28;20425;-70
2022/09/11 12:20:11;;;;;;;4.47;2.55;;;21.50;99.90;;;;;;5057531;28;20036;-69
2022/09/11 12:22:40;;;;;;;5.10;2.58;;;21.50;99.90;;;;;;5055880;28;20052;-69
2022/09/11 12:25:18;;;;;;;4.30;2.78;;;21.50;99.90;;;;;;5046418;28;20371;-69
2022/09/11 12:27:53;;;;;;;2.60;2.40;;;21.60;99.90;;;;;;5056993;28;20045;-69
2022/09/11 12:30:21;;;;;;;5.35;2.70;;;21.70;99.90;;;;;;5059898;28;20037;-68
2022/09/11 12:33:01;;;;;;;3.20;2.30;;;21.70;99.90;;;;;;5042744;28;20128;-71
2022/09/11 12:35:45;;;;;;;5.00;2.85;;;21.70;99.90;;;;;;5037678;28;20151;-70
2022/09/11 12:38:30;;;;;;;4.20;2.65;;;21.90;99.90;;;;;;5042785;28;20045;-70
2022/09/11 12:41:09;;;;;;;4.80;2.90;;;21.90;99.90;;;;;;5043874;28;20175;-69
2022/09/11 12:43:35;;;;;;;4.70;3.30;;;21.80;99.90;;;;;;5037099;28;20041;-70
2022/09/11 12:46:19;;;;;;;4.40;3.20;;;21.70;99.90;;;;;;5043305;28;20029;-71
2022/09/11 12:48:49;;;;;;;6.15;2.80;;;21.50;99.90;;;;;;5046466;28;20044;-70
2022/09/11 12:51:34;;;;;;;5.18;3.17;;;21.60;99.90;;;;;;5059297;28;20094;-70
2022/09/11 12:54:02;;;;;;;5.00;2.75;;;21.70;99.90;;;;;;5047088;28;20053;-73
2022/09/11 12:56:33;;;;;;;5.72;2.70;;;21.90;99.90;;;;;;5055661;28;20060;-70